createdAt,value
2018-09-08T00:01:39.246Z,17.87
2018-09-08T00:04:07.489Z,17.92
2018-09-08T00:06:36.281Z,17.93
2018-09-08T00:09:07.118Z,17.96
2018-09-08T00:11:35.258Z,17.98
2018-09-08T00:14:03.358Z,17.85
2018-09-08T00:16:36.917Z,17.88
2018-09-08T00:19:10.540Z,18.12
2018-09-08T00:21:43.984Z,18.08
2018-09-08T00:24:17.489Z,18.09
2018-09-08T00:26:44.858Z,18.01
2018-09-08T00:29:17.215Z,17.94
2018-09-08T00:31:45.901Z,17.77
2018-09-08T00:34:14.079Z,18.04
2018-09-08T00:36:42.178Z,18.16
2018-09-08T00:39:10.639Z,18.18
2018-09-08T00:41:38.723Z,18.18
2018-09-08T00:44:07.157Z,18.00
2018-09-08T00:46:35.518Z,17.87
2018-09-08T00:49:03.681Z,17.77
2018-09-08T00:51:31.814Z,17.81
2018-09-08T00:54:00.200Z,17.90
2018-09-08T00:56:28.454Z,17.80
2018-09-08T00:59:01.866Z,17.68
2018-09-08T01:01:29.968Z,17.57
2018-09-08T01:03:58.107Z,17.47
2018-09-08T01:06:26.205Z,17.58
2018-09-08T01:08:54.819Z,17.59
2018-09-08T01:11:23.127Z,17.58
2018-09-08T01:13:52.233Z,17.31
2018-09-08T01:16:21.013Z,17.28
2018-09-08T01:18:49.107Z,17.36
2018-09-08T01:21:17.282Z,17.34
2018-09-08T01:23:50.151Z,17.24
2018-09-08T01:26:18.732Z,16.98
2018-09-08T01:28:46.901Z,17.10
2018-09-08T01:31:15.185Z,17.20
2018-09-08T01:33:43.285Z,17.21
2018-09-08T01:36:11.501Z,17.21
2018-09-08T01:38:39.761Z,17.21
2018-09-08T01:41:07.819Z,17.22
2018-09-08T01:43:36.171Z,17.14
2018-09-08T01:46:04.292Z,17.02
2018-09-08T01:48:32.410Z,17.09
2018-09-08T01:51:00.510Z,17.12
2018-09-08T01:53:28.641Z,17.08
2018-09-08T01:55:56.715Z,16.98
2018-09-08T01:58:24.843Z,16.97
2018-09-08T02:00:52.993Z,16.83
2018-09-08T02:03:21.143Z,16.73
2018-09-08T02:05:49.209Z,16.91
2018-09-08T02:08:17.394Z,16.80
2018-09-08T02:10:45.652Z,16.78
2018-09-08T02:13:14.271Z,16.63
2018-09-08T02:18:34.435Z,16.57
2018-09-08T02:21:02.538Z,16.69
2018-09-08T02:23:30.597Z,16.68
2018-09-08T02:26:01.563Z,16.75
2018-09-08T02:28:29.803Z,16.48
2018-09-08T02:30:57.911Z,16.50
2018-09-08T02:33:25.976Z,16.44
2018-09-08T02:35:54.123Z,16.45
2018-09-08T02:38:22.826Z,16.49
2018-09-08T02:40:50.920Z,16.35
2018-09-08T02:43:19.035Z,16.50
2018-09-08T02:45:47.140Z,16.36
2018-09-08T02:48:15.252Z,16.17
2018-09-08T02:50:42.786Z,16.22
2018-09-08T02:53:13.664Z,16.04
2018-09-08T02:55:40.891Z,16.03
2018-09-08T02:58:07.958Z,16.26
2018-09-08T03:00:35.028Z,16.12
2018-09-08T03:03:02.250Z,16.24
2018-09-08T03:05:29.311Z,16.03
2018-09-08T03:07:56.435Z,15.93
2018-09-08T03:10:23.511Z,16.08
2018-09-08T03:12:51.595Z,15.99
2018-09-08T03:15:20.057Z,15.90
2018-09-08T03:17:47.119Z,15.89
2018-09-08T03:20:14.218Z,15.70
2018-09-08T03:22:41.295Z,15.79
2018-09-08T03:25:08.355Z,15.70
2018-09-08T03:27:35.462Z,15.67
2018-09-08T03:30:02.595Z,15.87
2018-09-08T03:32:29.661Z,15.76
2018-09-08T03:34:56.749Z,15.75
2018-09-08T03:37:23.847Z,15.60
2018-09-08T03:39:52.126Z,15.80
2018-09-08T03:42:19.211Z,15.67
2018-09-08T03:44:46.365Z,15.76
2018-09-08T03:47:13.523Z,15.77
2018-09-08T03:49:40.631Z,15.76
2018-09-08T03:52:07.708Z,15.81
2018-09-08T03:54:34.801Z,15.67
2018-09-08T03:57:01.879Z,15.64
2018-09-08T03:59:29.083Z,15.65
2018-09-08T04:01:56.170Z,15.39
2018-09-08T04:04:24.243Z,15.30
2018-09-08T04:06:52.969Z,15.21
2018-09-08T04:09:21.055Z,15.26
2018-09-08T04:11:49.211Z,15.33
2018-09-08T04:14:17.275Z,15.28
2018-09-08T04:16:45.366Z,15.15
2018-09-08T04:19:13.468Z,15.28
2018-09-08T04:21:41.820Z,15.13
2018-09-08T04:24:10.005Z,15.11
2018-09-08T04:26:37.986Z,15.10
2018-09-08T04:29:06.112Z,15.04
2018-09-08T04:31:34.210Z,14.79
2018-09-08T04:34:02.270Z,14.96
2018-09-08T04:36:30.452Z,14.92
2018-09-08T04:38:58.513Z,15.01
2018-09-08T04:41:26.595Z,15.10
2018-09-08T04:43:54.899Z,14.89
2018-09-08T04:46:23.987Z,14.86
2018-09-08T04:48:53.198Z,14.86
2018-09-08T04:51:21.323Z,14.99
2018-09-08T04:53:49.374Z,14.88
2018-09-08T04:56:17.472Z,14.88
2018-09-08T04:58:45.547Z,14.74
2018-09-08T05:01:13.650Z,14.83
2018-09-08T05:03:41.824Z,14.99
2018-09-08T05:06:10.010Z,14.88
2018-09-08T05:08:38.184Z,14.83
2018-09-08T05:11:06.343Z,14.62
2018-09-08T05:13:34.536Z,14.59
2018-09-08T05:16:02.735Z,14.85
2018-09-08T05:18:30.995Z,14.72
2018-09-08T05:20:59.120Z,14.80
2018-09-08T05:23:27.334Z,14.94
2018-09-08T05:25:55.519Z,14.79
2018-09-08T05:28:23.597Z,14.70
2018-09-08T05:30:51.775Z,14.79
2018-09-08T05:33:19.847Z,14.86
2018-09-08T05:35:48.017Z,14.79
2018-09-08T05:38:16.160Z,15.08
2018-09-08T05:40:44.253Z,15.07
2018-09-08T05:43:12.358Z,15.04
2018-09-08T05:45:40.745Z,14.85
2018-09-08T05:48:08.971Z,14.92
2018-09-08T05:50:37.045Z,15.08
2018-09-08T05:53:05.156Z,15.22
2018-09-08T05:55:33.312Z,15.21
2018-09-08T05:58:01.396Z,15.01
2018-09-08T06:00:29.558Z,15.06
2018-09-08T06:02:58.839Z,15.01
2018-09-08T06:05:26.894Z,14.99
2018-09-08T06:07:54.950Z,15.06
2018-09-08T06:10:24.131Z,14.96
2018-09-08T06:12:52.178Z,14.98
2018-09-08T06:15:20.268Z,15.02
2018-09-08T06:17:48.576Z,15.02
2018-09-08T06:20:16.694Z,15.19
2018-09-08T06:22:45.048Z,15.31
2018-09-08T06:25:13.148Z,15.16
2018-09-08T06:27:41.230Z,15.31
2018-09-08T06:30:09.342Z,15.50
2018-09-08T06:32:37.399Z,15.50
2018-09-08T06:35:05.577Z,15.55
2018-09-08T06:37:33.631Z,15.48
2018-09-08T06:40:01.724Z,15.54
2018-09-08T06:42:29.827Z,15.54
2018-09-08T06:44:58.179Z,15.79
2018-09-08T06:47:26.232Z,15.79
2018-09-08T06:49:54.360Z,15.81
2018-09-08T06:52:22.541Z,16.03
2018-09-08T06:54:50.546Z,15.72
2018-09-08T06:57:18.659Z,15.99
2018-09-08T06:59:46.767Z,16.13
2018-09-08T07:02:14.930Z,15.88
2018-09-08T07:04:43.432Z,15.72
2018-09-08T07:07:11.518Z,15.96
2018-09-08T07:09:40.059Z,16.10
2018-09-08T07:12:08.251Z,15.84
2018-09-08T07:14:36.885Z,16.02
2018-09-08T07:17:05.352Z,16.09
2018-09-08T07:19:33.507Z,16.16
2018-09-08T07:22:01.634Z,15.93
2018-09-08T07:24:29.792Z,16.25
2018-09-08T07:26:58.190Z,16.29
2018-09-08T07:29:26.576Z,16.20
2018-09-08T07:31:55.076Z,15.85
2018-09-08T07:34:23.893Z,16.07
2018-09-08T07:36:51.956Z,16.03
2018-09-08T07:39:20.031Z,16.06
2018-09-08T07:41:48.128Z,16.35
2018-09-08T07:44:16.297Z,15.99
2018-09-08T07:46:44.445Z,16.20
2018-09-08T07:49:12.543Z,16.40
2018-09-08T07:51:40.620Z,16.37
2018-09-08T07:54:08.854Z,16.75
2018-09-08T07:56:36.917Z,17.00
2018-09-08T07:59:05.292Z,16.90
2018-09-08T08:01:33.366Z,16.66
2018-09-08T08:04:01.570Z,16.80
2018-09-08T08:06:29.693Z,16.84
2018-09-08T08:08:57.808Z,16.97
2018-09-08T08:11:26.015Z,16.99
2018-09-08T08:13:54.083Z,16.76
2018-09-08T08:16:22.175Z,17.05
2018-09-08T08:18:50.256Z,17.16
2018-09-08T08:21:18.334Z,17.45
2018-09-08T08:23:46.543Z,17.58
2018-09-08T08:26:14.821Z,17.44
2018-09-08T08:28:42.877Z,17.33
2018-09-08T08:31:11.237Z,17.27
2018-09-08T08:33:39.315Z,17.61
2018-09-08T08:36:07.923Z,17.63
2018-09-08T08:38:36.185Z,17.72
2018-09-08T08:41:04.376Z,17.94
2018-09-08T08:43:32.523Z,17.58
2018-09-08T08:46:00.646Z,17.73
2018-09-08T08:48:28.711Z,17.94
2018-09-08T08:51:08.487Z,17.88
2018-09-08T08:53:47.843Z,18.13
2018-09-08T08:56:16.019Z,17.96
2018-09-08T08:58:44.068Z,18.07
2018-09-08T09:01:12.215Z,18.26
2018-09-08T09:03:40.283Z,18.28
2018-09-08T09:06:08.652Z,18.33
2018-09-08T09:08:37.201Z,18.07
2018-09-08T09:11:04.907Z,18.26
2018-09-08T09:13:33.132Z,18.46
2018-09-08T09:16:01.137Z,18.13
2018-09-08T09:18:41.091Z,18.33
2018-09-08T09:21:20.239Z,18.50
2018-09-08T09:25:10.673Z,18.57
2018-09-08T09:27:40.455Z,18.62
2018-09-08T09:30:09.135Z,19.09
2018-09-08T09:32:37.256Z,18.83
2018-09-08T09:35:06.030Z,19.44
2018-09-08T09:37:34.104Z,19.17
2018-09-08T09:40:02.186Z,19.14
2018-09-08T09:42:30.242Z,19.13
2018-09-08T09:44:58.359Z,19.31
2018-09-08T09:47:26.461Z,19.42
2018-09-08T09:49:54.527Z,19.46
2018-09-08T09:52:22.595Z,19.51
2018-09-08T09:54:50.659Z,19.08
2018-09-08T09:57:18.845Z,19.29
2018-09-08T09:59:46.926Z,19.11
2018-09-08T10:02:45.381Z,19.45
2018-09-08T10:05:16.316Z,19.78
2018-09-08T10:07:44.478Z,19.68
2018-09-08T10:10:14.046Z,19.45
2018-09-08T10:12:42.151Z,19.54
2018-09-08T10:15:10.696Z,19.87
2018-09-08T10:17:39.670Z,19.97
2018-09-08T10:20:09.329Z,20.05
2018-09-08T10:22:37.438Z,20.51
2018-09-08T10:25:06.289Z,20.13
2018-09-08T10:27:34.464Z,20.17
2018-09-08T10:30:03.867Z,20.61
2018-09-08T10:32:31.518Z,20.32
2018-09-08T10:34:59.625Z,20.48
2018-09-08T10:37:27.714Z,21.00
2018-09-08T10:39:55.845Z,20.98
2018-09-08T10:42:24.811Z,21.04
2018-09-08T10:44:53.337Z,21.45
2018-09-08T10:47:22.597Z,20.90
2018-09-08T10:49:50.640Z,20.82
2018-09-08T10:52:29.528Z,21.27
2018-09-08T10:54:57.672Z,21.49
2018-09-08T10:57:26.246Z,21.53
2018-09-08T10:59:55.290Z,21.89
2018-09-08T11:02:25.561Z,21.79
2018-09-08T11:04:53.641Z,22.14
2018-09-08T11:07:21.971Z,22.29
2018-09-08T11:09:50.033Z,22.49
2018-09-08T11:12:18.106Z,22.65
2018-09-08T11:14:46.165Z,22.92
2018-09-08T11:17:14.319Z,22.68
2018-09-08T11:19:42.459Z,22.80
2018-09-08T11:22:10.586Z,23.25
2018-09-08T11:24:38.686Z,23.81
2018-09-08T11:27:06.844Z,24.37
2018-09-08T11:29:34.869Z,24.97
2018-09-08T11:32:02.966Z,24.64
2018-09-08T11:34:31.044Z,25.25
2018-09-08T11:36:59.107Z,25.70
2018-09-08T11:39:27.219Z,26.14
2018-09-08T11:41:55.298Z,26.31
2018-09-08T11:44:23.436Z,26.20
2018-09-08T11:46:51.895Z,26.72
2018-09-08T11:49:20.121Z,27.76
2018-09-08T11:51:48.289Z,27.73
2018-09-08T11:54:16.383Z,27.02
2018-09-08T11:56:44.556Z,27.24
2018-09-08T11:59:12.623Z,28.03
2018-09-08T12:01:40.692Z,28.86
2018-09-08T12:04:09.421Z,29.66
2018-09-08T12:06:37.757Z,30.11
2018-09-08T12:09:08.026Z,29.46
2018-09-08T12:11:36.200Z,30.88
2018-09-08T12:14:05.101Z,30.95
2018-09-08T12:16:33.271Z,30.90
2018-09-08T12:19:01.363Z,31.49
2018-09-08T12:21:29.523Z,31.26
2018-09-08T12:23:57.630Z,31.39
2018-09-08T12:26:26.263Z,32.55
2018-09-08T12:28:55.214Z,32.75
2018-09-08T12:31:23.646Z,34.18
2018-09-08T12:33:51.892Z,33.76
2018-09-08T12:36:20.483Z,34.52
2018-09-08T12:38:48.742Z,33.53
2018-09-08T12:41:16.848Z,35.32
2018-09-08T12:43:45.059Z,36.96
2018-09-08T12:46:13.340Z,36.98
2018-09-08T12:48:41.884Z,36.92
2018-09-08T12:51:10.946Z,36.42
2018-09-08T12:53:39.564Z,36.15
2018-09-08T12:56:08.878Z,37.94
2018-09-08T12:58:37.958Z,38.15
2018-09-08T13:01:06.788Z,40.12
2018-09-08T13:03:34.913Z,40.33
2018-09-08T13:06:03.213Z,37.83
2018-09-08T13:08:31.417Z,38.78
2018-09-08T13:10:59.480Z,41.60
2018-09-08T13:13:27.674Z,41.11
2018-09-08T13:15:55.887Z,38.25
2018-09-08T13:18:24.312Z,39.72
2018-09-08T13:20:52.552Z,43.55
2018-09-08T13:23:21.564Z,44.22
2018-09-08T13:25:50.835Z,44.61
2018-09-08T13:28:21.421Z,43.90
2018-09-08T13:30:50.054Z,41.51
2018-09-08T13:33:18.983Z,41.05
2018-09-08T13:35:47.238Z,40.64
2018-09-08T13:38:15.486Z,42.76
2018-09-08T13:40:43.816Z,44.75
2018-09-08T13:43:13.015Z,46.59
2018-09-08T13:45:41.346Z,45.68
2018-09-08T13:48:09.473Z,44.65
2018-09-08T13:50:38.022Z,46.02
2018-09-08T13:53:06.442Z,44.52
2018-09-08T13:55:35.082Z,45.64
2018-09-08T13:58:03.284Z,45.85
2018-09-08T14:00:31.580Z,47.38
2018-09-08T14:02:59.986Z,43.00
2018-09-08T14:05:28.164Z,43.97
2018-09-08T14:07:58.519Z,47.22
2018-09-08T14:10:26.883Z,48.18
2018-09-08T14:12:55.705Z,46.95
2018-09-08T14:15:23.869Z,40.74
2018-09-08T14:17:52.045Z,44.80
2018-09-08T14:20:20.202Z,43.41
2018-09-08T14:22:49.740Z,44.04
2018-09-08T14:25:18.022Z,45.28
2018-09-08T14:27:46.215Z,42.25
2018-09-08T14:30:14.386Z,44.35
2018-09-08T14:32:42.456Z,37.41
2018-09-08T14:35:10.560Z,34.12
2018-09-08T14:37:38.679Z,34.82
2018-09-08T14:40:06.789Z,35.88
2018-09-08T14:42:34.863Z,34.13
2018-09-08T14:45:03.498Z,33.80
2018-09-08T14:47:31.620Z,34.93
2018-09-08T14:49:59.778Z,37.67
2018-09-08T14:52:27.821Z,37.80
2018-09-08T14:54:55.965Z,38.84
2018-09-08T14:57:24.404Z,39.20
2018-09-08T14:59:52.810Z,38.36
2018-09-08T15:02:20.902Z,35.57
2018-09-08T15:04:49.349Z,34.66
2018-09-08T15:07:17.169Z,34.37
2018-09-08T15:09:45.280Z,34.41
2018-09-08T15:12:13.437Z,39.57
2018-09-08T15:14:41.551Z,42.76
2018-09-08T15:17:09.784Z,38.08
2018-09-08T15:19:37.855Z,33.01
2018-09-08T15:22:05.951Z,31.85
2018-09-08T15:24:34.067Z,35.92
2018-09-08T15:27:02.070Z,40.60
2018-09-08T15:29:30.246Z,38.45
2018-09-08T15:31:58.449Z,38.74
2018-09-08T15:34:26.535Z,37.14
2018-09-08T15:36:54.599Z,37.03
2018-09-08T15:39:22.683Z,35.07
2018-09-08T15:41:51.773Z,35.77
2018-09-08T15:44:19.997Z,37.51
2018-09-08T15:46:48.096Z,39.50
2018-09-08T15:49:16.181Z,38.56
2018-09-08T15:51:44.426Z,40.30
2018-09-08T15:54:12.660Z,41.20
2018-09-08T15:56:41.119Z,38.46
2018-09-08T15:59:09.195Z,41.05
2018-09-08T16:01:37.238Z,40.06
2018-09-08T16:04:05.372Z,38.45
2018-09-08T16:06:33.457Z,38.43
2018-09-08T16:09:01.514Z,38.96
2018-09-08T16:11:29.654Z,38.90
2018-09-08T16:13:57.799Z,38.92
2018-09-08T16:16:26.305Z,35.42
2018-09-08T16:18:54.391Z,34.76
2018-09-08T16:21:22.478Z,37.09
2018-09-08T16:23:50.500Z,34.26
2018-09-08T16:26:18.566Z,35.38
2018-09-08T16:28:46.698Z,33.40
2018-09-08T16:31:14.809Z,31.13
2018-09-08T16:33:42.869Z,28.73
2018-09-08T16:36:10.954Z,28.96
2018-09-08T16:38:39.067Z,28.98
2018-09-08T16:41:07.222Z,28.99
2018-09-08T16:43:35.294Z,29.21
2018-09-08T16:46:03.514Z,28.26
2018-09-08T16:48:31.565Z,28.26
2018-09-08T16:50:59.643Z,28.15
2018-09-08T16:53:27.676Z,28.58
2018-09-08T16:55:56.441Z,28.61
2018-09-08T16:58:24.510Z,28.11
2018-09-08T17:00:52.657Z,27.98
2018-09-08T17:03:20.682Z,26.78
2018-09-08T17:05:48.728Z,26.51
2018-09-08T17:08:22.329Z,26.64
2018-09-08T17:13:31.824Z,27.08
2018-09-08T17:15:59.979Z,27.15
2018-09-08T17:18:28.035Z,27.53
2018-09-08T17:20:56.467Z,27.32
2018-09-08T17:23:24.659Z,27.22
2018-09-08T17:25:52.784Z,27.01
2018-09-08T17:28:20.940Z,26.96
2018-09-08T17:30:49.984Z,26.55
2018-09-08T17:33:18.086Z,26.34
2018-09-08T17:35:46.400Z,25.96
2018-09-08T17:38:14.488Z,26.01
2018-09-08T17:40:42.578Z,26.44
2018-09-08T17:43:10.681Z,25.93
2018-09-08T17:45:38.994Z,26.45
2018-09-08T17:48:07.476Z,26.19
2018-09-08T17:50:35.566Z,26.33
2018-09-08T17:53:03.759Z,26.14
2018-09-08T17:55:31.887Z,26.15
2018-09-08T17:57:59.959Z,26.34
2018-09-08T18:00:28.023Z,26.35
2018-09-08T18:02:56.671Z,26.37
2018-09-08T18:05:24.923Z,26.13
2018-09-08T18:07:53.057Z,26.16
2018-09-08T18:10:21.235Z,25.92
2018-09-08T18:12:49.667Z,25.93
2018-09-08T18:15:17.769Z,25.58
2018-09-08T18:17:45.882Z,25.40
2018-09-08T18:20:13.994Z,25.62
2018-09-08T18:22:42.066Z,25.21
2018-09-08T18:25:10.168Z,25.24
2018-09-08T18:27:38.291Z,25.27
2018-09-08T18:30:06.696Z,25.29
2018-09-08T18:32:34.786Z,25.14
2018-09-08T18:35:02.922Z,25.13
2018-09-08T18:37:31.030Z,25.32
2018-09-08T18:39:59.130Z,25.23
2018-09-08T18:42:39.471Z,25.05
2018-09-08T18:45:07.531Z,24.88
2018-09-08T18:47:35.904Z,24.86
2018-09-08T18:50:04.100Z,24.88
2018-09-08T18:52:38.724Z,24.80
2018-09-08T18:55:06.982Z,24.83
2018-09-08T18:57:35.158Z,24.66
2018-09-08T19:00:04.400Z,24.64
2018-09-08T19:02:32.475Z,24.55
2018-09-08T19:07:42.402Z,24.48
2018-09-08T19:10:10.643Z,24.45
2018-09-08T19:12:57.113Z,24.23
2018-09-08T19:15:25.352Z,24.22
2018-09-08T19:17:53.771Z,24.25
2018-09-08T19:20:27.317Z,24.45
2018-09-08T19:22:55.383Z,23.90
2018-09-08T19:25:23.517Z,24.06
2018-09-08T19:27:51.638Z,24.04
2018-09-08T19:30:20.147Z,23.87
2018-09-08T19:32:48.231Z,23.95
2018-09-08T19:35:47.960Z,24.06
2018-09-08T19:38:16.097Z,23.71
2018-09-08T19:40:46.107Z,23.76
2018-09-08T19:43:14.306Z,23.63
2018-09-08T19:45:42.460Z,23.48
2018-09-08T19:48:12.881Z,23.64
2018-09-08T19:50:41.039Z,23.64
2018-09-08T19:53:14.867Z,23.62
2018-09-08T19:55:43.206Z,23.49
2018-09-08T19:58:19.836Z,23.30
2018-09-08T20:00:50.174Z,23.27
2018-09-08T20:03:18.357Z,23.34
2018-09-08T20:05:46.692Z,23.22
2018-09-08T20:08:15.199Z,23.18
2018-09-08T20:10:43.372Z,22.90
2018-09-08T20:13:11.497Z,22.84
2018-09-08T20:15:39.632Z,22.83
2018-09-08T20:18:07.809Z,22.64
2018-09-08T20:20:42.227Z,22.72
2018-09-08T20:23:11.260Z,22.61
2018-09-08T20:25:39.473Z,22.72
2018-09-08T20:28:07.586Z,22.38
2018-09-08T20:30:35.779Z,22.25
2018-09-08T20:33:03.851Z,22.29
2018-09-08T20:35:31.951Z,22.20
2018-09-08T20:38:00.028Z,22.30
2018-09-08T20:40:28.152Z,22.41
2018-09-08T20:42:56.258Z,22.27
2018-09-08T20:45:24.375Z,22.06
2018-09-08T20:47:52.553Z,21.98
2018-09-08T20:50:21.345Z,21.93
2018-09-08T20:52:49.365Z,22.04
2018-09-08T20:55:17.451Z,21.99
2018-09-08T20:57:45.536Z,21.87
2018-09-08T21:00:13.672Z,21.80
2018-09-08T21:02:41.759Z,21.72
2018-09-08T21:05:09.872Z,21.72
2018-09-08T21:07:38.354Z,21.57
2018-09-08T21:10:06.468Z,21.62
2018-09-08T21:12:34.649Z,21.42
2018-09-08T21:15:02.816Z,21.53
2018-09-08T21:17:30.868Z,21.36
2018-09-08T21:19:58.926Z,21.52
2018-09-08T21:22:27.593Z,21.47
2018-09-08T21:24:55.691Z,21.35
2018-09-08T21:27:24.043Z,21.40
2018-09-08T21:29:52.089Z,21.33
2018-09-08T21:32:20.335Z,21.23
2018-09-08T21:34:48.397Z,21.27
2018-09-08T21:37:16.645Z,21.13
2018-09-08T21:39:44.670Z,21.33
2018-09-08T21:42:12.802Z,20.98
2018-09-08T21:44:40.921Z,20.94
2018-09-08T21:47:08.979Z,20.99
2018-09-08T21:49:37.040Z,21.03
2018-09-08T21:52:05.167Z,20.89
2018-09-08T21:54:34.171Z,20.82
2018-09-08T21:57:02.200Z,20.95
2018-09-08T21:59:30.269Z,20.89
2018-09-08T22:01:59.850Z,20.96
2018-09-08T22:04:28.042Z,21.02
2018-09-08T22:06:56.288Z,20.90
2018-09-08T22:09:24.375Z,20.79
2018-09-08T22:11:52.560Z,20.77
2018-09-08T22:14:20.827Z,20.66
2018-09-08T22:16:48.959Z,20.87
2018-09-08T22:22:28.932Z,20.60
2018-09-08T22:24:57.901Z,20.64
2018-09-08T22:27:26.806Z,20.69
2018-09-08T22:29:54.894Z,20.69
2018-09-08T22:32:23.172Z,20.44
2018-09-08T22:34:51.346Z,20.69
2018-09-08T22:37:20.060Z,20.55
2018-09-08T22:39:48.326Z,20.54
2018-09-08T22:42:16.455Z,20.38
2018-09-08T22:44:46.296Z,20.24
2018-09-08T22:47:14.989Z,20.41
2018-09-08T22:49:43.133Z,20.41
2018-09-08T22:52:11.259Z,20.31
2018-09-08T22:54:39.349Z,20.38
2018-09-08T22:57:07.454Z,20.27
2018-09-08T22:59:36.846Z,20.28
2018-09-08T23:02:04.856Z,20.21
2018-09-08T23:04:32.971Z,20.09
2018-09-08T23:07:01.081Z,19.82
2018-09-08T23:09:29.178Z,20.03
2018-09-08T23:11:58.079Z,20.02
2018-09-08T23:14:26.192Z,19.84
2018-09-08T23:16:55.052Z,19.68
2018-09-08T23:19:23.219Z,20.17
2018-09-08T23:21:51.499Z,20.09
2018-09-08T23:24:19.786Z,20.25
2018-09-08T23:26:47.867Z,20.24
2018-09-08T23:29:16.015Z,20.13
2018-09-08T23:31:44.066Z,19.95
2018-09-08T23:34:12.274Z,19.86
2018-09-08T23:36:40.439Z,19.87
2018-09-08T23:39:08.532Z,20.00
2018-09-08T23:41:36.662Z,19.96
2018-09-08T23:44:04.898Z,19.93
2018-09-08T23:46:33.137Z,19.82
2018-09-08T23:49:01.284Z,19.72
2018-09-08T23:51:29.424Z,19.67
2018-09-08T23:53:58.224Z,19.59
2018-09-08T23:56:26.280Z,19.51
2018-09-08T23:58:54.563Z,19.38
